| time (UTC) | temp F | wind direction | speed MPH | gust MPH | rain 1hr in | rain 24hr in | rain mn in | humidity % | barometer mb |
| 20260901205407 | 77 | 248 | 5.0 | 6.0 | 0.00 | 0.00 | 0.00 | 80 | 1024.1 |
| 20260901204902 | 77 | 229 | 5.0 | 7.0 | 0.00 | 0.00 | 0.00 | 80 | 1024.2 |
| 20260901204358 | 78 | 216 | 3.0 | 7.0 | 0.00 | 0.00 | 0.00 | 79 | 1024.2 |
| 20260901203858 | 78 | 210 | 5.0 | 6.0 | 0.00 | 0.00 | 0.00 | 79 | 1024.3 |
| 20260901203352 | 81 | 209 | 2.0 | 3.0 | 0.00 | 0.00 | 0.00 | 75 | 1024.2 |
| 20260901202847 | 80 | 117 | 2.0 | 4.0 | 0.00 | 0.00 | 0.00 | 75 | 1024.2 |
| 20260901202342 | 80 | 221 | 4.0 | 6.0 | 0.00 | 0.00 | 0.00 | 76 | 1024.3 |
| 20260901201838 | 80 | 227 | 4.0 | 4.0 | 0.00 | 0.00 | 0.00 | 77 | 1024.4 |
| 20260901201338 | 80 | 220 | 4.0 | 4.0 | 0.00 | 0.00 | 0.00 | 77 | 1024.6 |
| 20260901200831 | 80 | 226 | 5.0 | 6.0 | 0.00 | 0.00 | 0.00 | 77 | 1024.7 |
| 20260901200328 | 79 | 228 | 4.0 | 6.0 | 0.00 | 0.00 | 0.00 | 78 | 1024.7 |
| 20260901195826 | 79 | 189 | 3.0 | 8.0 | 0.00 | 0.00 | 0.00 | 77 | 1024.8 |
| 20260901195324 | 79 | 202 | 3.0 | 6.0 | 0.00 | 0.00 | 0.00 | 78 | 1024.7 |
| 20260901194821 | 79 | 212 | 1.0 | 3.0 | 0.00 | 0.00 | 0.00 | 79 | 1024.5 |
| 20260901194314 | 78 | 194 | 0.0 | 4.0 | 0.00 | 0.00 | 0.00 | 77 | 1024.7 |
| 20260901193811 | 78 | 229 | 6.0 | 8.0 | 0.00 | 0.00 | 0.00 | 79 | 1024.5 |
| 20260901193309 | 78 | 132 | 2.0 | 4.0 | 0.00 | 0.00 | 0.00 | 79 | 1024.6 |
| 20260901192804 | 78 | 217 | 3.0 | 6.0 | 0.00 | 0.00 | 0.00 | 79 | 1024.7 |
| 20260901192255 | 79 | 224 | 4.0 | 6.0 | 0.00 | 0.00 | 0.00 | 80 | 1024.6 |
| 20260901191750 | 79 | 198 | 2.0 | 4.0 | 0.00 | 0.00 | 0.00 | 79 | 1024.7 |
| 20260901191246 | 79 | 226 | 5.0 | 6.0 | 0.00 | 0.00 | 0.00 | 78 | 1024.9 |
| 20260901190741 | 79 | 214 | 2.0 | 6.0 | 0.00 | 0.00 | 0.00 | 77 | 1024.8 |
| 20260901190236 | 80 | 203 | 2.0 | 7.0 | 0.00 | 0.00 | 0.00 | 78 | 1024.8 |
| 20260901185734 | 80 | 224 | 4.0 | 6.0 | 0.00 | 0.00 | 0.00 | 78 | 1024.9 |
| 20260901185232 | 81 | 217 | 4.0 | 4.0 | 0.00 | 0.00 | 0.00 | 76 | 1024.9 |
| 20260901184728 | 80 | 196 | 2.0 | 4.0 | 0.00 | 0.00 | 0.00 | 77 | 1025.0 |
| 20260901184223 | 80 | 227 | 4.0 | 8.0 | 0.00 | 0.00 | 0.00 | 75 | 1025.1 |
| 20260901183720 | 81 | 240 | 6.0 | 9.0 | 0.00 | 0.00 | 0.00 | 75 | 1025.4 |
| 20260901183219 | 82 | 201 | 1.0 | 6.0 | 0.00 | 0.00 | 0.00 | 73 | 1025.4 |
| 20260901182716 | 82 | 201 | 2.0 | 4.0 | 0.00 | 0.00 | 0.00 | 72 | 1025.3 |
| 20260901182214 | 81 | 224 | 4.0 | 7.0 | 0.00 | 0.00 | 0.00 | 74 | 1025.6 |
| 20260901181710 | 82 | 230 | 4.0 | 9.0 | 0.00 | 0.00 | 0.00 | 73 | 1025.4 |
| 20260901181203 | 83 | 221 | 3.0 | 7.0 | 0.00 | 0.00 | 0.00 | 71 | 1025.6 |
| 20260901180657 | 83 | 196 | 0.0 | 4.0 | 0.00 | 0.00 | 0.00 | 70 | 1025.7 |
| 20260901180151 | 83 | 210 | 2.0 | 7.0 | 0.00 | 0.00 | 0.00 | 71 | 1025.7 |
| 20260901175650 | 82 | 202 | 1.0 | 3.0 | 0.00 | 0.00 | 0.00 | 73 | 1025.7 |
| 20260901175145 | 82 | 199 | 2.0 | 2.0 | 0.00 | 0.00 | 0.00 | 72 | 1025.8 |
| 20260901174640 | 81 | 217 | 1.0 | 6.0 | 0.00 | 0.00 | 0.00 | 74 | 1025.9 |
| 20260901174136 | 82 | 210 | 2.0 | 3.0 | 0.00 | 0.00 | 0.00 | 73 | 1025.7 |
| 20260901173631 | 82 | 207 | 3.0 | 6.0 | 0.00 | 0.00 | 0.00 | 73 | 1025.8 |
| 20260901173132 | 82 | 134 | 2.0 | 6.0 | 0.00 | 0.00 | 0.00 | 72 | 1025.5 |
| 20260901172628 | 82 | 212 | 6.0 | 8.0 | 0.00 | 0.00 | 0.00 | 72 | 1025.4 |
| 20260901172126 | 82 | 177 | 0.0 | 4.0 | 0.00 | 0.00 | 0.00 | 73 | 1025.3 |
| 20260901171625 | 82 | 223 | 3.0 | 4.0 | 0.00 | 0.00 | 0.00 | 74 | 1025.5 |
| 20260901171120 | 81 | 225 | 4.0 | 8.0 | 0.00 | 0.00 | 0.00 | 74 | 1025.5 |
| 20260901170619 | 81 | 222 | 2.0 | 6.0 | 0.00 | 0.00 | 0.00 | 72 | 1025.5 |
| 20260901170114 | 81 | 228 | 4.0 | 4.0 | 0.00 | 0.00 | 0.00 | 75 | 1025.3 |
| 20260901165613 | 81 | 230 | 3.0 | 4.0 | 0.00 | 0.00 | 0.00 | 73 | 1025.4 |
| 20260901165109 | 81 | 214 | 2.0 | 4.0 | 0.00 | 0.00 | 0.00 | 75 | 1025.5 |
| 20260901164604 | 79 | 201 | 1.0 | 3.0 | 0.00 | 0.00 | 0.00 | 76 | 1025.6 |
| 20260901164059 | 80 | 221 | 1.0 | 4.0 | 0.00 | 0.00 | 0.00 | 76 | 1025.5 |
| 20260901163554 | 82 | 244 | 4.0 | 4.0 | 0.00 | 0.00 | 0.00 | 72 | 1025.4 |
| 20260901163054 | 82 | 260 | 1.0 | 2.0 | 0.00 | 0.00 | 0.00 | 73 | 1025.5 |
| 20260901162548 | 81 | 259 | 2.0 | 6.0 | 0.00 | 0.00 | 0.00 | 74 | 1025.4 |
| 20260901162048 | 81 | 277 | 4.0 | 8.0 | 0.00 | 0.00 | 0.00 | 73 | 1025.6 |
| 20260901161541 | 80 | 239 | 4.0 | 7.0 | 0.00 | 0.00 | 0.00 | 77 | 1025.4 |
| 20260901161041 | 82 | 258 | 6.0 | 7.0 | 0.00 | 0.00 | 0.00 | 72 | 1025.5 |
| 20260901160538 | 82 | 255 | 3.0 | 6.0 | 0.00 | 0.00 | 0.00 | 75 | 1025.6 |
| 20260901160032 | 82 | 240 | 2.0 | 7.0 | 0.00 | 0.00 | 0.00 | 74 | 1025.3 |
| 20260901155531 | 81 | 264 | 1.0 | 4.0 | 0.00 | 0.00 | 0.00 | 75 | 1025.3 |
| 20260901155027 | 80 | 240 | 5.0 | 8.0 | 0.00 | 0.00 | 0.00 | 73 | 1025.4 |
| 20260901154527 | 79 | 259 | 2.0 | 7.0 | 0.00 | 0.00 | 0.00 | 78 | 1025.4 |
| 20260901154022 | 79 | 250 | 3.0 | 7.0 | 0.00 | 0.00 | 0.00 | 77 | 1025.3 |
| 20260901153516 | 79 | 248 | 4.0 | 6.0 | 0.00 | 0.00 | 0.00 | 76 | 1025.4 |
| 20260901153010 | 80 | 267 | 2.0 | 4.0 | 0.00 | 0.00 | 0.00 | 77 | 1025.4 |
| 20260901152505 | 79 | 259 | 2.0 | 4.0 | 0.00 | 0.00 | 0.00 | 77 | 1025.1 |
| 20260901152004 | 79 | 250 | 3.0 | 7.0 | 0.00 | 0.00 | 0.00 | 77 | 1025.3 |
| 20260901151500 | 78 | 250 | 4.0 | 7.0 | 0.00 | 0.00 | 0.00 | 77 | 1025.4 |
| 20260901150959 | 80 | 256 | 5.0 | 6.0 | 0.00 | 0.00 | 0.00 | 77 | 1025.4 |
| 20260901150457 | 80 | 255 | 1.0 | 6.0 | 0.00 | 0.00 | 0.00 | 77 | 1025.3 |
| 20260901145955 | 80 | 240 | 2.0 | 6.0 | 0.00 | 0.00 | 0.00 | 76 | 1025.0 |
| 20260901145449 | 78 | 235 | 4.0 | 7.0 | 0.00 | 0.00 | 0.00 | 79 | 1025.3 |
| 20260901144949 | 78 | 246 | 1.0 | 4.0 | 0.00 | 0.00 | 0.00 | 81 | 1025.0 |
| 20260901144445 | 76 | 249 | 4.0 | 6.0 | 0.00 | 0.00 | 0.00 | 82 | 1025.4 |
| 20260901143940 | 75 | 258 | 4.0 | 4.0 | 0.00 | 0.00 | 0.00 | 84 | 1025.3 |
| 20260901143436 | 76 | 259 | 4.0 | 6.0 | 0.00 | 0.00 | 0.00 | 83 | 1025.6 |
| 20260901142932 | 77 | 245 | 2.0 | 3.0 | 0.00 | 0.00 | 0.00 | 81 | 1025.1 |
| 20260901142431 | 76 | 243 | 3.0 | 4.0 | 0.00 | 0.00 | 0.00 | 84 | 1025.3 |
| 20260901141926 | 76 | 254 | 4.0 | 4.0 | 0.00 | 0.00 | 0.00 | 83 | 1025.4 |
| 20260901141421 | 78 | 267 | 4.0 | 6.0 | 0.00 | 0.00 | 0.00 | 81 | 1025.1 |
| 20260901140916 | 77 | 268 | 3.0 | 7.0 | 0.00 | 0.00 | 0.00 | 81 | 1025.3 |
| 20260901140414 | 76 | 258 | 4.0 | 7.0 | 0.00 | 0.00 | 0.00 | 83 | 1025.4 |
| 20260901135908 | 76 | 249 | 4.0 | 9.0 | 0.00 | 0.00 | 0.00 | 84 | 1025.4 |
| 20260901135404 | 74 | 239 | 3.0 | 4.0 | 0.00 | 0.00 | 0.00 | 86 | 1025.3 |
| 20260901134859 | 73 | 236 | 3.0 | 6.0 | 0.00 | 0.00 | 0.00 | 88 | 1025.5 |
| 20260901134354 | 73 | 248 | 3.0 | 7.0 | 0.00 | 0.00 | 0.00 | 87 | 1025.6 |
| 20260901133849 | 74 | 239 | 3.0 | 6.0 | 0.00 | 0.00 | 0.00 | 86 | 1025.4 |
| 20260901133348 | 75 | 268 | 2.0 | 4.0 | 0.00 | 0.00 | 0.00 | 84 | 1025.6 |
| 20260901132846 | 76 | 261 | 5.0 | 7.0 | 0.00 | 0.00 | 0.00 | 84 | 1025.4 |
| 20260901132341 | 76 | 249 | 3.0 | 6.0 | 0.00 | 0.00 | 0.00 | 84 | 1025.4 |
| 20260901131835 | 74 | 256 | 3.0 | 7.0 | 0.00 | 0.00 | 0.00 | 86 | 1025.4 |
| 20260901131335 | 75 | 254 | 2.0 | 4.0 | 0.00 | 0.00 | 0.00 | 86 | 1025.4 |
| 20260901130830 | 76 | 255 | 3.0 | 6.0 | 0.00 | 0.00 | 0.00 | 85 | 1025.3 |
| 20260901130325 | 75 | 238 | 3.0 | 6.0 | 0.00 | 0.00 | 0.00 | 85 | 1025.3 |
| 20260901125822 | 74 | 253 | 3.0 | 4.0 | 0.00 | 0.00 | 0.00 | 85 | 1025.5 |
| 20260901125316 | 74 | 248 | 4.0 | 4.0 | 0.00 | 0.00 | 0.00 | 86 | 1025.4 |
| 20260901124811 | 73 | 241 | 3.0 | 6.0 | 0.00 | 0.00 | 0.00 | 90 | 1025.5 |
| 20260901124306 | 73 | 241 | 3.0 | 6.0 | 0.00 | 0.00 | 0.00 | 90 | 1025.5 |
| 20260901123801 | 0 | 214 | 4.0 | 4.0 | 0.00 | 0.00 | 0.00 | 1025.3 | |
| 20260901123256 | 0 | 207 | 3.0 | 4.0 | 0.00 | 0.00 | 0.00 | 1025.4 | |
| 20260901122754 | 0 | 215 | 3.0 | 6.0 | 0.00 | 0.00 | 0.00 | 1025.3 | |
| 20260901122248 | 0 | 208 | 3.0 | 4.0 | 0.00 | 0.00 | 0.00 | 1025.3 | |
| 20260901121742 | 0 | 208 | 3.0 | 4.0 | 0.00 | 0.00 | 0.00 | 1025.3 | |
| 20260901121237 | 0 | 198 | 5.0 | 6.0 | 0.00 | 0.00 | 0.00 | 1025.4 | |
| 20260901120737 | 0 | 198 | 4.0 | 6.0 | 0.00 | 0.00 | 0.00 | 1025.1 | |
| 20260901120232 | 0 | 201 | 3.0 | 6.0 | 0.00 | 0.00 | 0.00 | 1025.3 | |
| 20260901115727 | 0 | 200 | 2.0 | 4.0 | 0.00 | 0.00 | 0.00 | 1025.4 | |
| 20260901115223 | 0 | 198 | 4.0 | 4.0 | 0.00 | 0.00 | 0.00 | 1025.3 | |
| 20260901114721 | 0 | 192 | 1.0 | 3.0 | 0.00 | 0.00 | 0.00 | 1025.0 | |
| 20260901114220 | 0 | 187 | 0.0 | 3.0 | 0.00 | 0.00 | 0.00 | 1025.0 | |
| 20260901113713 | 0 | 182 | 3.0 | 4.0 | 0.00 | 0.00 | 0.00 | 1024.9 | |
| 20260901113209 | 0 | 177 | 2.0 | 4.0 | 0.00 | 0.00 | 0.00 | 1024.9 | |
| 20260901112708 | 0 | 171 | 2.0 | 4.0 | 0.00 | 0.00 | 0.00 | 1025.3 | |
| 20260901112202 | 0 | 169 | 2.0 | 3.0 | 0.00 | 0.00 | 0.00 | 1024.8 | |
| 20260901111702 | 0 | 170 | 3.0 | 3.0 | 0.00 | 0.00 | 0.00 | 1024.8 | |
| 20260901111156 | 0 | 168 | 1.0 | 3.0 | 0.00 | 0.00 | 0.00 | 1024.8 | |
| 20260901110651 | 0 | 166 | 2.0 | 3.0 | 0.00 | 0.00 | 0.00 | 1024.8 | |
| 20260901110146 | 0 | 158 | 1.0 | 3.0 | 0.00 | 0.00 | 0.00 | 1024.7 | |
| 20260901105643 | 0 | 155 | 2.0 | 2.0 | 0.00 | 0.00 | 0.00 | 1024.6 | |
| 20260901105142 | 0 | 157 | 2.0 | 2.0 | 0.00 | 0.00 | 0.00 | 1024.7 | |
| 20260901104638 | 0 | 157 | 2.0 | 2.0 | 0.00 | 0.00 | 0.00 | 1024.6 | |
| 20260901104133 | 0 | 156 | 2.0 | 2.0 | 0.00 | 0.00 | 0.00 | 1024.8 | |
| 20260901103632 | 0 | 153 | 2.0 | 2.0 | 0.00 | 0.00 | 0.00 | 1024.6 | |
| 20260901103127 | 0 | 153 | 1.0 | 2.0 | 0.00 | 0.00 | 0.00 | 1024.6 | |
| 20260901102622 | 0 | 151 | 1.0 | 2.0 | 0.00 | 0.00 | 0.00 | 1024.7 | |
| 20260901102116 | 0 | 146 | 0.0 | 0.0 | 0.00 | 0.00 | 0.00 | 1024.7 | |
| 20260901101613 | 0 | 150 | 0.0 | 0.0 | 0.00 | 0.00 | 0.00 | 1024.8 | |
| 20260901101112 | 0 | 152 | 0.0 | 0.0 | 0.00 | 0.00 | 0.00 | 1024.8 | |
| 20260901100611 | 0 | 152 | 0.0 | 0.0 | 0.00 | 0.00 | 0.00 | 1024.8 | |
| 20260901100106 | 0 | 152 | 0.0 | 0.0 | 0.00 | 0.00 | 0.00 | 1024.6 | |
| 20260901095604 | 0 | 152 | 0.0 | 0.0 | 0.00 | 0.00 | 0.00 | 1024.7 | |
| 20260901095102 | 0 | 155 | 0.0 | 0.0 | 0.00 | 0.00 | 0.00 | 1024.6 | |
| 20260901094557 | 0 | 157 | 0.0 | 0.0 | 0.00 | 0.00 | 0.00 | 1024.8 | |
| 20260901094057 | 0 | 159 | 1.0 | 2.0 | 0.00 | 0.00 | 0.00 | 1024.6 | |
| 20260901093551 | 0 | 159 | 1.0 | 2.0 | 0.00 | 0.00 | 0.00 | 1024.5 | |
| 20260901093046 | 0 | 172 | 0.0 | 0.0 | 0.00 | 0.00 | 0.00 | 1024.7 | |
| 20260901092542 | 0 | 168 | 0.0 | 2.0 | 0.00 | 0.00 | 0.00 | 1024.6 | |
| 20260901092038 | 69 | 170 | 1.0 | 2.0 | 0.00 | 0.00 | 0.00 | 94 | 1024.7 |
| 20260901091534 | 69 | 171 | 2.0 | 3.0 | 0.00 | 0.00 | 0.00 | 94 | 1024.6 |
| 20260901091033 | 69 | 177 | 1.0 | 2.0 | 0.00 | 0.00 | 0.00 | 94 | 1024.6 |
| 20260901090533 | 0 | 181 | 2.0 | 2.0 | 0.00 | 0.00 | 0.00 | 1024.6 | |
| 20260901090030 | 69 | 185 | 2.0 | 3.0 | 0.00 | 0.00 | 0.00 | 93 | 1024.6 |
| 20260901085524 | 69 | 182 | 2.0 | 2.0 | 0.00 | 0.00 | 0.00 | 93 | 1024.5 |
| 20260901085020 | 69 | 186 | 2.0 | 3.0 | 0.00 | 0.00 | 0.00 | 93 | 1024.5 |
| 20260901084516 | 69 | 186 | 1.0 | 2.0 | 0.00 | 0.00 | 0.00 | 93 | 1024.5 |
| 20260901084012 | 70 | 190 | 1.0 | 2.0 | 0.00 | 0.00 | 0.00 | 93 | 1024.6 |
| 20260901083506 | 70 | 190 | 1.0 | 2.0 | 0.00 | 0.00 | 0.00 | 92 | 1024.5 |
| 20260901083004 | 70 | 191 | 2.0 | 3.0 | 0.00 | 0.00 | 0.00 | 92 | 1024.6 |
| 20260901082459 | 70 | 190 | 0.0 | 0.0 | 0.00 | 0.00 | 0.00 | 92 | 1024.7 |
| 20260901081954 | 70 | 191 | 2.0 | 2.0 | 0.00 | 0.00 | 0.00 | 92 | 1024.8 |
| 20260901081449 | 70 | 189 | 1.0 | 2.0 | 0.00 | 0.00 | 0.00 | 92 | 1024.6 |
| 20260901080945 | 69 | 188 | 2.0 | 3.0 | 0.00 | 0.00 | 0.00 | 92 | 1024.6 |
| 20260901080444 | 69 | 180 | 2.0 | 3.0 | 0.00 | 0.00 | 0.00 | 93 | 1024.5 |
| 20260901075944 | 0 | 179 | 2.0 | 2.0 | 0.00 | 0.00 | 0.00 | 1024.4 | |
| 20260901075440 | 69 | 177 | 2.0 | 2.0 | 0.00 | 0.00 | 0.00 | 93 | 1024.8 |
| 20260901074933 | 69 | 177 | 2.0 | 2.0 | 0.00 | 0.00 | 0.00 | 93 | 1024.9 |
| 20260901074428 | 69 | 175 | 2.0 | 2.0 | 0.00 | 0.00 | 0.00 | 94 | 1024.8 |
| 20260901073923 | 69 | 175 | 2.0 | 2.0 | 0.00 | 0.00 | 0.00 | 94 | 1024.7 |
| 20260901073420 | 69 | 170 | 2.0 | 3.0 | 0.00 | 0.00 | 0.00 | 94 | 1024.8 |
| 20260901072914 | 69 | 170 | 2.0 | 3.0 | 0.00 | 0.00 | 0.00 | 94 | 1024.9 |
| 20260901072409 | 68 | 169 | 2.0 | 3.0 | 0.00 | 0.00 | 0.00 | 94 | 1024.8 |
| 20260901071904 | 68 | 161 | 1.0 | 2.0 | 0.00 | 0.00 | 0.00 | 95 | 1025.3 |
| 20260901071403 | 0 | 155 | 2.0 | 2.0 | 0.00 | 0.00 | 0.00 | 1024.9 | |
| 20260901070902 | 0 | 151 | 2.0 | 2.0 | 0.00 | 0.00 | 0.00 | 1024.8 | |
| 20260901070358 | 0 | 145 | 1.0 | 2.0 | 0.00 | 0.00 | 0.00 | 1025.0 | |
| 20260901065856 | 66 | 144 | 2.0 | 2.0 | 0.00 | 0.00 | 0.00 | 97 | 1024.9 |
| 20260901065352 | 66 | 141 | 2.0 | 2.0 | 0.00 | 0.00 | 0.00 | 97 | 1025.1 |
| 20260901064847 | 66 | 141 | 2.0 | 2.0 | 0.00 | 0.00 | 0.00 | 97 | 1025.0 |
| 20260901064344 | 66 | 141 | 0.0 | 0.0 | 0.00 | 0.00 | 0.00 | 97 | 1025.1 |
| 20260901063841 | 66 | 143 | 0.0 | 1.0 | 0.00 | 0.00 | 0.00 | 97 | 1025.0 |
| 20260901063337 | 66 | 145 | 1.0 | 1.0 | 0.00 | 0.00 | 0.00 | 97 | 1025.1 |
| 20260901062832 | 67 | 148 | 1.0 | 2.0 | 0.00 | 0.00 | 0.00 | 97 | 1025.4 |
| 20260901062328 | 67 | 147 | 1.0 | 2.0 | 0.00 | 0.00 | 0.00 | 97 | 1025.3 |
| 20260901061824 | 66 | 147 | 2.0 | 2.0 | 0.00 | 0.00 | 0.00 | 97 | 1025.5 |
| 20260901061318 | 67 | 148 | 2.0 | 2.0 | 0.00 | 0.00 | 0.00 | 96 | 1025.4 |
| 20260901060813 | 67 | 148 | 2.0 | 2.0 | 0.00 | 0.00 | 0.00 | 96 | 1025.1 |
| 20260901060309 | 66 | 150 | 2.0 | 2.0 | 0.00 | 0.00 | 0.00 | 96 | 1025.5 |
| 20260901055804 | 67 | 150 | 2.0 | 3.0 | 0.00 | 0.00 | 0.00 | 96 | 1025.3 |
| 20260901055300 | 67 | 150 | 2.0 | 2.0 | 0.00 | 0.00 | 0.00 | 96 | 1025.4 |
| 20260901054757 | 67 | 150 | 2.0 | 2.0 | 0.00 | 0.00 | 0.00 | 96 | 1025.5 |
| 20260901054254 | 67 | 151 | 2.0 | 2.0 | 0.00 | 0.00 | 0.00 | 96 | 1025.6 |
| 20260901053749 | 67 | 154 | 2.0 | 2.0 | 0.00 | 0.00 | 0.00 | 95 | 1025.5 |
| 20260901053244 | 67 | 154 | 2.0 | 2.0 | 0.00 | 0.00 | 0.00 | 95 | 1025.7 |
| 20260901052739 | 67 | 155 | 2.0 | 2.0 | 0.00 | 0.00 | 0.00 | 95 | 1025.6 |
| 20260901052235 | 67 | 155 | 2.0 | 3.0 | 0.00 | 0.00 | 0.00 | 95 | 1025.7 |
| 20260901051734 | 67 | 155 | 2.0 | 3.0 | 0.00 | 0.00 | 0.00 | 95 | 1025.6 |
| 20260901051228 | 67 | 155 | 2.0 | 2.0 | 0.00 | 0.00 | 0.00 | 95 | 1025.7 |
| 20260901050724 | 67 | 155 | 2.0 | 2.0 | 0.00 | 0.00 | 0.00 | 95 | 1025.7 |
| 20260901050219 | 67 | 156 | 2.0 | 3.0 | 0.00 | 0.00 | 0.00 | 95 | 1025.5 |
| 20260901045714 | 67 | 158 | 2.0 | 2.0 | 0.00 | 0.00 | 0.00 | 94 | 1025.6 |
| 20260901045209 | 67 | 156 | 0.0 | 0.0 | 0.00 | 0.00 | 0.00 | 94 | 1025.6 |
| 20260901044704 | 67 | 156 | 0.0 | 0.0 | 0.00 | 0.00 | 0.00 | 94 | 1025.6 |
| 20260901044201 | 67 | 156 | 0.0 | 0.0 | 0.00 | 0.00 | 0.00 | 94 | 1025.4 |
| 20260901043656 | 67 | 158 | 0.0 | 0.0 | 0.00 | 0.00 | 0.00 | 94 | 1025.3 |
| 20260901043151 | 67 | 156 | 0.0 | 0.0 | 0.00 | 0.00 | 0.00 | 94 | 1025.5 |
| 20260901042650 | 67 | 162 | 0.0 | 0.0 | 0.00 | 0.00 | 0.00 | 94 | 1025.6 |
| 20260901042145 | 67 | 167 | 0.0 | 0.0 | 0.00 | 0.00 | 0.00 | 93 | 1025.6 |
| 20260901041641 | 67 | 169 | 0.0 | 0.0 | 0.00 | 0.00 | 0.00 | 93 | 1025.5 |
| 20260901041136 | 67 | 172 | 0.0 | 0.0 | 0.00 | 0.00 | 0.00 | 93 | 1025.6 |
| 20260901040636 | 68 | 181 | 0.0 | 0.0 | 0.00 | 0.00 | 0.00 | 92 | 1025.7 |
| 20260901040135 | 68 | 190 | 0.0 | 0.0 | 0.00 | 0.00 | 0.00 | 91 | 1025.7 |
| 20260901035634 | 69 | 200 | 0.0 | 0.0 | 0.00 | 0.00 | 0.00 | 91 | 1025.9 |
| 20260901035133 | 69 | 204 | 0.0 | 0.0 | 0.00 | 0.00 | 0.00 | 90 | 1025.9 |
| 20260901034632 | 69 | 208 | 1.0 | 2.0 | 0.00 | 0.00 | 0.00 | 91 | 1026.0 |
| 20260901034127 | 69 | 211 | 1.0 | 3.0 | 0.00 | 0.00 | 0.00 | 90 | 1025.7 |
| 20260901033626 | 69 | 215 | 2.0 | 2.0 | 0.00 | 0.00 | 0.00 | 91 | 1026.0 |
| 20260901033121 | 69 | 225 | 2.0 | 2.0 | 0.00 | 0.00 | 0.00 | 91 | 1025.7 |
| 20260901032619 | 69 | 227 | 2.0 | 2.0 | 0.00 | 0.00 | 0.00 | 90 | 1025.8 |
| 20260901032114 | 70 | 227 | 2.0 | 3.0 | 0.00 | 0.00 | 0.00 | 90 | 1025.9 |
| 20260901031610 | 69 | 219 | 2.0 | 3.0 | 0.00 | 0.00 | 0.00 | 91 | 1025.8 |
| 20260901031106 | 69 | 223 | 2.0 | 2.0 | 0.00 | 0.00 | 0.00 | 91 | 1026.0 |
| 20260901030605 | 69 | 218 | 2.0 | 3.0 | 0.00 | 0.00 | 0.00 | 91 | 1025.9 |
| 20260901030106 | 69 | 221 | 2.0 | 3.0 | 0.00 | 0.00 | 0.00 | 91 | 1026.1 |
| 20260901025600 | 69 | 221 | 2.0 | 2.0 | 0.00 | 0.00 | 0.00 | 92 | 1026.2 |
| 20260901025055 | 69 | 213 | 2.0 | 3.0 | 0.00 | 0.00 | 0.00 | 92 | 1026.0 |
| 20260901024549 | 69 | 222 | 2.0 | 2.0 | 0.00 | 0.00 | 0.00 | 92 | 1026.2 |
| 20260901024048 | 69 | 214 | 2.0 | 3.0 | 0.00 | 0.00 | 0.00 | 91 | 1026.1 |
| 20260901023547 | 69 | 216 | 2.0 | 2.0 | 0.00 | 0.00 | 0.00 | 91 | 1026.1 |
| 20260901023043 | 68 | 207 | 2.0 | 3.0 | 0.00 | 0.00 | 0.00 | 92 | 1026.2 |
| 20260901022537 | 68 | 209 | 2.0 | 2.0 | 0.00 | 0.00 | 0.00 | 92 | 1026.0 |
| 20260901022033 | 68 | 214 | 2.0 | 2.0 | 0.00 | 0.00 | 0.00 | 91 | 1026.1 |
| 20260901021528 | 69 | 221 | 2.0 | 2.0 | 0.00 | 0.00 | 0.00 | 91 | 1026.3 |
| 20260901021024 | 69 | 221 | 1.0 | 2.0 | 0.00 | 0.00 | 0.00 | 90 | 1026.3 |
| 20260901020519 | 68 | 221 | 2.0 | 2.0 | 0.00 | 0.00 | 0.00 | 90 | 1026.2 |
| 20260901020015 | 69 | 222 | 2.0 | 2.0 | 0.00 | 0.00 | 0.00 | 90 | 1026.3 |
| 20260901015510 | 68 | 214 | 1.0 | 2.0 | 0.00 | 0.00 | 0.00 | 90 | 1026.3 |
| 20260901015009 | 68 | 207 | 2.0 | 2.0 | 0.00 | 0.00 | 0.00 | 91 | 1026.0 |
| 20260901014505 | 68 | 209 | 2.0 | 2.0 | 0.00 | 0.00 | 0.00 | 91 | 1025.9 |
| 20260901014001 | 68 | 217 | 2.0 | 2.0 | 0.00 | 0.00 | 0.00 | 91 | 1026.2 |
| 20260901013456 | 69 | 223 | 2.0 | 2.0 | 0.00 | 0.00 | 0.00 | 90 | 1025.9 |
| 20260901012951 | 69 | 222 | 2.0 | 2.0 | 0.00 | 0.00 | 0.00 | 89 | 1026.0 |
| 20260901012451 | 68 | 218 | 1.0 | 3.0 | 0.00 | 0.00 | 0.00 | 90 | 1025.8 |
| 20260901011947 | 68 | 212 | 2.0 | 3.0 | 0.00 | 0.00 | 0.00 | 91 | 1025.8 |
| 20260901011443 | 68 | 215 | 2.0 | 2.0 | 0.00 | 0.00 | 0.00 | 90 | 1025.9 |
| 20260901010940 | 68 | 224 | 2.0 | 2.0 | 0.00 | 0.00 | 0.00 | 90 | 1025.8 |
| 20260901010436 | 68 | 224 | 2.0 | 2.0 | 0.00 | 0.00 | 0.00 | 91 | 1025.6 |
| 20260901005935 | 68 | 226 | 2.0 | 2.0 | 0.00 | 0.00 | 0.00 | 93 | 1025.6 |
| 20260901005430 | 69 | 223 | 0.0 | 0.0 | 0.00 | 0.00 | 0.00 | 92 | 1025.5 |
| 20260901004925 | 69 | 229 | 0.0 | 0.0 | 0.00 | 0.00 | 0.00 | 91 | 1025.6 |
| 20260901004424 | 69 | 228 | 0.0 | 0.0 | 0.00 | 0.00 | 0.00 | 92 | 1025.6 |
| 20260901003919 | 69 | 223 | 0.0 | 0.0 | 0.00 | 0.00 | 0.00 | 92 | 1025.4 |
| 20260901003415 | 68 | 217 | 0.0 | 0.0 | 0.00 | 0.00 | 0.00 | 93 | 1025.4 |
| 20260901002913 | 68 | 215 | 0.0 | 0.0 | 0.00 | 0.00 | 0.00 | 94 | 1025.6 |
| 20260901002412 | 68 | 213 | 0.0 | 0.0 | 0.00 | 0.00 | 0.00 | 94 | 1025.3 |
| 20260901001907 | 68 | 214 | 0.0 | 0.0 | 0.00 | 0.00 | 0.00 | 94 | 1025.3 |
| 20260901001403 | 68 | 213 | 0.0 | 0.0 | 0.00 | 0.00 | 0.00 | 95 | 1025.1 |
| 20260901000858 | 68 | 216 | 0.0 | 0.0 | 0.00 | 0.00 | 0.00 | 95 | 1025.5 |
| 20260901000353 | 68 | 228 | 0.0 | 0.0 | 0.00 | 0.00 | 0.00 | 93 | 1025.4 |
| 20260831235851 | 69 | 233 | 0.0 | 0.0 | 0.00 | 0.00 | 0.00 | 93 | 1025.5 |
| 20260831235348 | 69 | 235 | 0.0 | 0.0 | 0.00 | 0.00 | 0.00 | 93 | 1025.3 |
| 20260831234842 | 69 | 238 | 0.0 | 0.0 | 0.00 | 0.00 | 0.00 | 94 | 1025.4 |
| 20260831234337 | 69 | 239 | 0.0 | 0.0 | 0.00 | 0.00 | 0.00 | 93 | 1025.4 |
| 20260831233832 | 69 | 242 | 0.0 | 0.0 | 0.00 | 0.00 | 0.00 | 93 | 1025.6 |
| 20260831233327 | 69 | 245 | 0.0 | 0.0 | 0.00 | 0.00 | 0.00 | 91 | 1025.5 |
| 20260831232822 | 70 | 253 | 0.0 | 0.0 | 0.00 | 0.00 | 0.00 | 90 | 1025.6 |
| 20260831232319 | 70 | 254 | 0.0 | 0.0 | 0.00 | 0.00 | 0.00 | 90 | 1025.6 |
| 20260831231815 | 70 | 256 | 0.0 | 0.0 | 0.00 | 0.00 | 0.00 | 90 | 1025.8 |
| 20260831231311 | 71 | 256 | 0.0 | 0.0 | 0.00 | 0.00 | 0.00 | 88 | 1025.7 |
| 20260831230806 | 71 | 258 | 0.0 | 0.0 | 0.00 | 0.00 | 0.00 | 88 | 1025.7 |
| 20260831230301 | 72 | 260 | 0.0 | 0.0 | 0.00 | 0.00 | 0.00 | 87 | 1025.5 |
| 20260831225800 | 72 | 261 | 0.0 | 0.0 | 0.00 | 0.00 | 0.00 | 86 | 1025.8 |
| 20260831225255 | 72 | 262 | 0.0 | 0.0 | 0.00 | 0.00 | 0.00 | 86 | 1025.8 |
| 20260831224750 | 73 | 264 | 0.0 | 0.0 | 0.00 | 0.00 | 0.00 | 85 | 1025.9 |
| 20260831224246 | 73 | 266 | 0.0 | 0.0 | 0.00 | 0.00 | 0.00 | 84 | 1026.0 |
| 20260831223740 | 74 | 267 | 0.0 | 0.0 | 0.00 | 0.00 | 0.00 | 82 | 1025.9 |
| 20260831223237 | 75 | 265 | 1.0 | 2.0 | 0.00 | 0.00 | 0.00 | 80 | 1025.9 |
| 20260831222733 | 76 | 265 | 1.0 | 3.0 | 0.00 | 0.00 | 0.00 | 80 | 1025.9 |
| 20260831222228 | 76 | 275 | 1.0 | 2.0 | 0.00 | 0.00 | 0.00 | 78 | 1025.8 |
| 20260831221724 | 77 | 267 | 0.0 | 2.0 | 0.00 | 0.00 | 0.00 | 76 | 1026.2 |
| 20260831221219 | 77 | 269 | 2.0 | 3.0 | 0.00 | 0.00 | 0.00 | 75 | 1026.0 |
| 20260831220714 | 78 | 261 | 0.0 | 0.0 | 0.00 | 0.00 | 0.00 | 75 | 1026.0 |
| 20260831220209 | 77 | 259 | 0.0 | 0.0 | 0.00 | 0.00 | 0.00 | 78 | 1025.8 |
| 20260831215704 | 76 | 259 | 0.0 | 0.0 | 0.00 | 0.00 | 0.00 | 79 | 1025.9 |
| 20260831215200 | 76 | 260 | 0.0 | 0.0 | 0.00 | 0.00 | 0.00 | 78 | 1026.0 |
| 20260831214657 | 76 | 259 | 0.0 | 0.0 | 0.00 | 0.00 | 0.00 | 80 | 1026.0 |
| 20260831214153 | 76 | 258 | 0.0 | 0.0 | 0.00 | 0.00 | 0.00 | 79 | 1026.0 |
| 20260831213648 | 76 | 258 | 0.0 | 0.0 | 0.00 | 0.00 | 0.00 | 82 | 1026.0 |
| 20260831213143 | 76 | 258 | 0.0 | 0.0 | 0.00 | 0.00 | 0.00 | 79 | 1026.0 |
| 20260831212635 | 76 | 259 | 0.0 | 0.0 | 0.00 | 0.00 | 0.00 | 81 | 1026.0 |
| 20260831212131 | 76 | 258 | 0.0 | 2.0 | 0.00 | 0.00 | 0.00 | 80 | 1026.1 |
| 20260831211630 | 76 | 264 | 1.0 | 2.0 | 0.00 | 0.00 | 0.00 | 80 | 1026.0 |
| 20260831211129 | 76 | 264 | 0.0 | 1.0 | 0.00 | 0.00 | 0.00 | 77 | 1026.1 |
| 20260831210625 | 76 | 267 | 0.0 | 2.0 | 0.00 | 0.00 | 0.00 | 78 | 1026.1 |
| 20260831210121 | 76 | 272 | 0.0 | 1.0 | 0.00 | 0.00 | 0.00 | 79 | 1026.2 |